createdAt,value
2019-01-24T00:00:58.672Z,986.52
2019-01-24T00:01:58.643Z,986.55
2019-01-24T00:02:58.630Z,986.54
2019-01-24T00:03:58.599Z,986.54
2019-01-24T00:04:58.589Z,986.54
2019-01-24T00:05:58.587Z,986.54
2019-01-24T00:06:58.606Z,986.58
2019-01-24T00:07:58.566Z,986.63
2019-01-24T00:08:58.550Z,986.59
2019-01-24T00:09:58.534Z,986.61
2019-01-24T00:10:58.527Z,986.62
2019-01-24T00:11:58.512Z,986.58
2019-01-24T00:12:58.542Z,986.61
2019-01-24T00:13:58.488Z,986.62
2019-01-24T00:14:58.499Z,986.62
2019-01-24T00:15:58.535Z,986.62
2019-01-24T00:16:58.458Z,986.62
2019-01-24T00:17:58.458Z,986.62
2019-01-24T00:18:58.507Z,986.63
2019-01-24T00:19:58.500Z,986.68
2019-01-24T00:20:58.423Z,986.70
2019-01-24T00:21:58.421Z,986.71
2019-01-24T00:22:58.426Z,986.71
2019-01-24T00:23:58.390Z,986.75
2019-01-24T00:24:58.422Z,986.83
2019-01-24T00:25:58.363Z,986.85
2019-01-24T00:26:58.379Z,986.85
2019-01-24T00:27:58.349Z,986.81
2019-01-24T00:28:58.332Z,986.83
2019-01-24T00:29:58.322Z,986.83
2019-01-24T00:30:58.349Z,986.87
2019-01-24T00:31:58.342Z,986.85
2019-01-24T00:32:58.301Z,986.86
2019-01-24T00:33:58.282Z,986.87
2019-01-24T00:34:58.270Z,986.86
2019-01-24T00:35:58.268Z,986.87
2019-01-24T00:36:58.355Z,986.88
2019-01-24T00:37:58.235Z,986.92
2019-01-24T00:38:58.233Z,986.88
2019-01-24T00:39:58.216Z,986.92
2019-01-24T00:40:58.212Z,986.91
2019-01-24T00:41:58.254Z,986.92
2019-01-24T00:42:58.238Z,986.89
2019-01-24T00:43:58.210Z,986.92
2019-01-24T00:44:58.185Z,986.94
2019-01-24T00:45:58.157Z,986.93
2019-01-24T00:46:58.146Z,986.91
2019-01-24T00:47:58.164Z,986.90
2019-01-24T00:48:58.186Z,986.90
2019-01-24T00:49:58.113Z,986.92
2019-01-24T00:50:58.126Z,986.99
2019-01-24T00:51:58.097Z,986.96
2019-01-24T00:52:58.079Z,986.96
2019-01-24T00:53:58.070Z,986.93
2019-01-24T00:54:58.101Z,986.97
2019-01-24T00:55:58.048Z,986.98
2019-01-24T00:56:58.035Z,986.93
2019-01-24T00:57:58.027Z,987.00
2019-01-24T00:58:58.028Z,987.01
2019-01-24T00:59:58.027Z,987.02
2019-01-24T01:00:58.028Z,987.01
2019-01-24T01:01:57.983Z,987.03
2019-01-24T01:02:57.973Z,987.06
2019-01-24T01:03:57.964Z,987.03
2019-01-24T01:04:57.953Z,987.11
2019-01-24T01:05:57.969Z,987.09
2019-01-24T01:06:57.990Z,987.05
2019-01-24T01:07:57.933Z,987.06
2019-01-24T01:08:57.913Z,987.05
2019-01-24T01:09:57.932Z,987.11
2019-01-24T01:10:57.897Z,987.10
2019-01-24T01:11:57.886Z,987.11
2019-01-24T01:12:57.908Z,987.13
2019-01-24T01:13:57.856Z,987.14
2019-01-24T01:14:57.848Z,987.17
2019-01-24T01:15:57.877Z,987.18
2019-01-24T01:16:57.848Z,987.21
2019-01-24T01:17:57.841Z,987.21
2019-01-24T01:18:57.853Z,987.21
2019-01-24T01:19:57.818Z,987.24
2019-01-24T01:20:57.786Z,987.29
2019-01-24T01:21:57.776Z,987.35
2019-01-24T01:22:57.763Z,987.36
2019-01-24T01:23:57.752Z,987.38
2019-01-24T01:24:57.922Z,987.40
2019-01-24T01:25:57.744Z,987.43
2019-01-24T01:26:57.725Z,987.43
2019-01-24T01:27:57.710Z,987.45
2019-01-24T01:28:57.704Z,987.51
2019-01-24T01:29:57.722Z,987.46
2019-01-24T01:30:57.718Z,987.48
2019-01-24T01:31:57.669Z,987.46
2019-01-24T01:32:57.667Z,987.44
2019-01-24T01:33:57.654Z,987.45
2019-01-24T01:34:57.686Z,987.52
2019-01-24T01:35:57.638Z,987.46
2019-01-24T01:36:57.655Z,987.53
2019-01-24T01:37:57.607Z,987.49
2019-01-24T01:38:57.592Z,987.52
2019-01-24T01:39:57.615Z,987.48
2019-01-24T01:40:57.574Z,987.47
2019-01-24T01:41:57.570Z,987.54
2019-01-24T01:42:57.587Z,987.53
2019-01-24T01:43:57.542Z,987.54
2019-01-24T01:44:57.532Z,987.55
2019-01-24T01:45:57.559Z,987.62
2019-01-24T01:46:57.532Z,987.62
2019-01-24T01:47:57.514Z,987.61
2019-01-24T01:48:57.588Z,987.63
2019-01-24T01:49:57.484Z,987.63
2019-01-24T01:50:57.471Z,987.66
2019-01-24T01:51:57.490Z,987.60
2019-01-24T01:52:57.447Z,987.61
2019-01-24T01:53:57.442Z,987.68
2019-01-24T01:54:57.477Z,987.70
2019-01-24T01:55:57.429Z,987.69
2019-01-24T01:56:57.410Z,987.71
2019-01-24T01:57:57.454Z,987.72
2019-01-24T01:58:57.394Z,987.75
2019-01-24T01:59:57.377Z,987.70
2019-01-24T02:00:57.548Z,987.71
2019-01-24T02:01:57.385Z,987.72
2019-01-24T02:02:57.363Z,987.79
2019-01-24T02:03:57.328Z,987.78
2019-01-24T02:04:57.322Z,987.74
2019-01-24T02:05:57.353Z,987.80
2019-01-24T02:06:57.345Z,987.80
2019-01-24T02:07:57.293Z,987.77
2019-01-24T02:08:57.299Z,987.75
2019-01-24T02:09:57.299Z,987.73
2019-01-24T02:10:57.254Z,987.75
2019-01-24T02:11:57.251Z,987.78
2019-01-24T02:12:57.278Z,987.79
2019-01-24T02:13:57.234Z,987.84
2019-01-24T02:14:57.226Z,987.80
2019-01-24T02:15:57.222Z,987.82
2019-01-24T02:16:57.192Z,987.81
2019-01-24T02:17:57.186Z,987.77
2019-01-24T02:18:57.500Z,987.82
2019-01-24T02:19:57.165Z,987.81
2019-01-24T02:20:57.158Z,987.90
2019-01-24T02:21:57.144Z,987.83
2019-01-24T02:22:57.152Z,987.93
2019-01-24T02:23:57.155Z,987.94
2019-01-24T02:24:57.145Z,987.90
2019-01-24T02:25:57.120Z,987.88
2019-01-24T02:26:57.085Z,987.88
2019-01-24T02:27:57.102Z,987.90
2019-01-24T02:28:57.072Z,987.90
2019-01-24T02:29:57.059Z,987.86
2019-01-24T02:30:57.106Z,987.88
2019-01-24T02:31:57.034Z,987.83
2019-01-24T02:32:57.034Z,987.84
2019-01-24T02:33:57.018Z,987.95
2019-01-24T02:34:57.014Z,987.93
2019-01-24T02:35:56.991Z,987.96
2019-01-24T02:36:57.147Z,987.97
2019-01-24T02:37:56.970Z,987.96
2019-01-24T02:38:56.970Z,987.91
2019-01-24T02:39:56.997Z,987.95
2019-01-24T02:40:56.943Z,987.97
2019-01-24T02:41:56.958Z,988.01
2019-01-24T02:42:56.961Z,988.00
2019-01-24T02:43:56.974Z,988.01
2019-01-24T02:44:56.899Z,988.00
2019-01-24T02:45:56.993Z,987.98
2019-01-24T02:46:56.881Z,987.97
2019-01-24T02:47:56.879Z,987.99
2019-01-24T02:48:56.931Z,988.01
2019-01-24T02:49:56.878Z,987.97
2019-01-24T02:50:56.844Z,987.95
2019-01-24T02:51:56.849Z,987.99
2019-01-24T02:52:56.818Z,987.98
2019-01-24T02:53:56.806Z,987.94
2019-01-24T02:54:56.836Z,987.96
2019-01-24T02:55:56.835Z,987.97
2019-01-24T02:56:56.776Z,988.00
2019-01-24T02:57:56.770Z,987.95
2019-01-24T02:58:56.761Z,987.97
2019-01-24T02:59:56.745Z,988.01
2019-01-24T03:00:56.762Z,988.02
2019-01-24T03:01:56.736Z,988.06
2019-01-24T03:02:56.702Z,988.01
2019-01-24T03:03:56.704Z,988.08
2019-01-24T03:04:57.206Z,988.05
2019-01-24T03:05:56.671Z,988.08
2019-01-24T03:06:56.724Z,988.13
2019-01-24T03:07:56.664Z,988.10
2019-01-24T03:08:56.647Z,988.12
2019-01-24T03:09:56.666Z,988.16
2019-01-24T03:10:56.635Z,988.14
2019-01-24T03:11:56.620Z,988.14
2019-01-24T03:12:56.650Z,988.15
2019-01-24T03:13:56.587Z,988.13
2019-01-24T03:14:56.586Z,988.17
2019-01-24T03:15:56.589Z,988.12
2019-01-24T03:16:56.570Z,988.15
2019-01-24T03:17:56.545Z,988.13
2019-01-24T03:18:56.590Z,988.17
2019-01-24T03:19:56.533Z,988.14
2019-01-24T03:20:56.512Z,988.18
2019-01-24T03:21:56.514Z,988.15
2019-01-24T03:22:56.498Z,988.13
2019-01-24T03:23:56.480Z,988.17
2019-01-24T03:24:56.506Z,988.13
2019-01-24T03:25:56.458Z,988.10
2019-01-24T03:26:56.453Z,988.12
2019-01-24T03:27:56.457Z,988.11
2019-01-24T03:28:56.426Z,988.13
2019-01-24T03:29:56.416Z,988.12
2019-01-24T03:30:56.438Z,988.15
2019-01-24T03:31:56.396Z,988.14
2019-01-24T03:32:56.388Z,988.13
2019-01-24T03:33:56.383Z,988.11
2019-01-24T03:34:56.376Z,988.09
2019-01-24T03:35:56.368Z,988.09
2019-01-24T03:36:56.387Z,988.10
2019-01-24T03:37:56.351Z,988.07
2019-01-24T03:38:56.338Z,988.11
2019-01-24T03:39:56.321Z,988.07
2019-01-24T03:40:56.307Z,988.09
2019-01-24T03:41:56.297Z,988.09
2019-01-24T03:42:56.336Z,988.07
2019-01-24T03:43:56.280Z,988.06
2019-01-24T03:44:56.258Z,988.07
2019-01-24T03:45:56.258Z,988.09
2019-01-24T03:46:56.261Z,988.08
2019-01-24T03:47:56.229Z,988.13
2019-01-24T03:48:56.261Z,988.10
2019-01-24T03:49:56.248Z,988.13
2019-01-24T03:50:56.258Z,988.14
2019-01-24T03:51:56.195Z,988.21
2019-01-24T03:52:56.186Z,988.16
2019-01-24T03:53:56.172Z,988.17
2019-01-24T03:54:56.216Z,988.19
2019-01-24T03:55:56.162Z,988.23
2019-01-24T03:56:56.134Z,988.22
2019-01-24T03:57:56.133Z,988.26
2019-01-24T03:58:56.118Z,988.22
2019-01-24T03:59:56.108Z,988.24
2019-01-24T04:00:56.128Z,988.23
2019-01-24T04:01:56.092Z,988.27
2019-01-24T04:02:56.080Z,988.26
2019-01-24T04:03:56.068Z,988.21
2019-01-24T04:04:56.050Z,988.24
2019-01-24T04:05:56.049Z,988.27
2019-01-24T04:06:56.084Z,988.18
2019-01-24T04:07:56.056Z,988.22
2019-01-24T04:08:56.037Z,988.20
2019-01-24T04:09:56.026Z,988.23
2019-01-24T04:10:55.991Z,988.22
2019-01-24T04:11:55.978Z,988.23
2019-01-24T04:12:56.029Z,988.18
2019-01-24T04:13:55.960Z,988.21
2019-01-24T04:14:55.959Z,988.20
2019-01-24T04:15:55.941Z,988.20
2019-01-24T04:16:55.926Z,988.18
2019-01-24T04:17:55.934Z,988.20
2019-01-24T04:18:55.950Z,988.22
2019-01-24T04:19:55.891Z,988.22
2019-01-24T04:20:55.879Z,988.20
2019-01-24T04:21:55.888Z,988.24
2019-01-24T04:22:55.863Z,988.30
2019-01-24T04:23:55.861Z,988.30
2019-01-24T04:24:55.891Z,988.29
2019-01-24T04:25:55.826Z,988.31
2019-01-24T04:26:55.820Z,988.31
2019-01-24T04:27:55.810Z,988.35
2019-01-24T04:28:55.799Z,988.34
2019-01-24T04:29:55.793Z,988.36
2019-01-24T04:30:55.827Z,988.38
2019-01-24T04:31:55.773Z,988.37
2019-01-24T04:32:55.773Z,988.38
2019-01-24T04:33:55.760Z,988.40
2019-01-24T04:34:55.741Z,988.42
2019-01-24T04:35:55.740Z,988.48
2019-01-24T04:36:55.790Z,988.52
2019-01-24T04:37:55.710Z,988.46
2019-01-24T04:38:55.712Z,988.51
2019-01-24T04:39:55.700Z,988.53
2019-01-24T04:40:55.683Z,988.51
2019-01-24T04:41:55.666Z,988.53
2019-01-24T04:42:55.689Z,988.59
2019-01-24T04:43:55.639Z,988.60
2019-01-24T04:44:55.634Z,988.55
2019-01-24T04:45:55.617Z,988.54
2019-01-24T04:46:55.676Z,988.54
2019-01-24T04:47:55.616Z,988.56
2019-01-24T04:48:55.642Z,988.62
2019-01-24T04:49:55.632Z,988.60
2019-01-24T04:50:55.564Z,988.61
2019-01-24T04:51:55.554Z,988.66
2019-01-24T04:52:55.548Z,988.66
2019-01-24T04:53:55.539Z,988.63
2019-01-24T04:54:55.623Z,988.64
2019-01-24T04:55:55.528Z,988.65
2019-01-24T04:56:55.514Z,988.65
2019-01-24T04:57:55.496Z,988.68
2019-01-24T04:58:55.491Z,988.72
2019-01-24T04:59:55.479Z,988.70
2019-01-24T05:00:55.532Z,988.69
2019-01-24T05:01:55.448Z,988.69
2019-01-24T05:02:55.453Z,988.73
2019-01-24T05:03:55.429Z,988.77
2019-01-24T05:04:55.419Z,988.74
2019-01-24T05:05:55.443Z,988.77
2019-01-24T05:06:55.442Z,988.81
2019-01-24T05:07:55.383Z,988.73
2019-01-24T05:08:55.382Z,988.74
2019-01-24T05:09:55.362Z,988.78
2019-01-24T05:10:55.363Z,988.77
2019-01-24T05:11:55.347Z,988.76
2019-01-24T05:12:55.377Z,988.77
2019-01-24T05:13:55.325Z,988.80
2019-01-24T05:14:55.318Z,988.79
2019-01-24T05:15:55.402Z,988.81
2019-01-24T05:16:55.364Z,988.84
2019-01-24T05:17:55.288Z,988.86
2019-01-24T05:18:55.418Z,988.84
2019-01-24T05:19:55.275Z,988.86
2019-01-24T05:20:55.251Z,988.92
2019-01-24T05:21:55.238Z,988.95
2019-01-24T05:22:55.233Z,988.93
2019-01-24T05:23:55.246Z,988.96
2019-01-24T05:24:55.247Z,988.95
2019-01-24T05:25:55.202Z,988.93
2019-01-24T05:26:55.216Z,988.97
2019-01-24T05:27:55.207Z,988.95
2019-01-24T05:28:55.167Z,989.00
2019-01-24T05:29:55.163Z,988.98
2019-01-24T05:30:55.191Z,989.00
2019-01-24T05:31:55.149Z,989.01
2019-01-24T05:32:55.425Z,989.01
2019-01-24T05:33:55.111Z,988.98
2019-01-24T05:34:55.183Z,989.03
2019-01-24T05:35:55.094Z,989.10
2019-01-24T05:36:55.129Z,989.06
2019-01-24T05:37:55.074Z,989.10
2019-01-24T05:38:55.078Z,989.09
2019-01-24T05:39:55.054Z,989.11
2019-01-24T05:40:55.044Z,989.17
2019-01-24T05:41:55.037Z,989.16
2019-01-24T05:42:55.061Z,989.14
2019-01-24T05:43:55.006Z,989.17
2019-01-24T05:44:55.022Z,989.22
2019-01-24T05:45:54.997Z,989.18
2019-01-24T05:46:54.975Z,989.21
2019-01-24T05:47:54.963Z,989.18
2019-01-24T05:48:55.113Z,989.24
2019-01-24T05:49:54.949Z,989.23
2019-01-24T05:50:54.932Z,989.23
2019-01-24T05:51:54.926Z,989.29
2019-01-24T05:52:54.909Z,989.29
2019-01-24T05:53:54.912Z,989.33
2019-01-24T05:54:54.959Z,989.32
2019-01-24T05:55:54.880Z,989.26
2019-01-24T05:56:54.866Z,989.28
2019-01-24T05:57:54.906Z,989.36
2019-01-24T05:58:54.847Z,989.35
2019-01-24T05:59:54.845Z,989.29
2019-01-24T06:00:55.285Z,989.38
2019-01-24T06:01:54.887Z,989.28
2019-01-24T06:02:54.833Z,989.36
2019-01-24T06:03:54.947Z,989.32
2019-01-24T06:04:54.799Z,989.34
2019-01-24T06:05:54.786Z,989.31
2019-01-24T06:06:54.821Z,989.35
2019-01-24T06:07:54.753Z,989.34
2019-01-24T06:08:54.750Z,989.31
2019-01-24T06:09:54.730Z,989.29
2019-01-24T06:10:54.718Z,989.33
2019-01-24T06:11:54.716Z,989.31
2019-01-24T06:12:54.730Z,989.31
2019-01-24T06:13:54.719Z,989.28
2019-01-24T06:14:54.681Z,989.29
2019-01-24T06:15:54.697Z,989.25
2019-01-24T06:16:54.654Z,989.23
2019-01-24T06:17:54.649Z,989.28
2019-01-24T06:18:54.670Z,989.29
2019-01-24T06:19:54.636Z,989.26
2019-01-24T06:20:54.613Z,989.23
2019-01-24T06:21:54.623Z,989.26
2019-01-24T06:22:54.608Z,989.27
2019-01-24T06:23:54.623Z,989.22
2019-01-24T06:24:54.634Z,989.28
2019-01-24T06:25:54.570Z,989.31
2019-01-24T06:26:54.559Z,989.30
2019-01-24T06:27:54.564Z,989.34
2019-01-24T06:28:54.536Z,989.28
2019-01-24T06:29:54.517Z,989.36
2019-01-24T06:30:54.809Z,989.30
2019-01-24T06:31:54.507Z,989.33
2019-01-24T06:32:54.487Z,989.34
2019-01-24T06:33:54.476Z,989.36
2019-01-24T06:34:54.465Z,989.30
2019-01-24T06:35:54.460Z,989.41
2019-01-24T06:36:54.508Z,989.45
2019-01-24T06:37:54.441Z,989.46
2019-01-24T06:38:54.423Z,989.48
2019-01-24T06:39:54.412Z,989.49
2019-01-24T06:40:54.402Z,989.46
2019-01-24T06:41:54.392Z,989.56
2019-01-24T06:42:54.412Z,989.51
2019-01-24T06:43:54.379Z,989.45
2019-01-24T06:44:54.373Z,989.51
2019-01-24T06:45:54.356Z,989.53
2019-01-24T06:46:54.344Z,989.53
2019-01-24T06:47:54.347Z,989.51
2019-01-24T06:48:54.374Z,989.57
2019-01-24T06:49:54.319Z,989.55
2019-01-24T06:50:54.304Z,989.59
2019-01-24T06:51:54.291Z,989.58
2019-01-24T06:52:54.289Z,989.59
2019-01-24T06:53:54.286Z,989.62
2019-01-24T06:54:54.305Z,989.61
2019-01-24T06:55:54.285Z,989.64
2019-01-24T06:56:54.246Z,989.64
2019-01-24T06:57:54.236Z,989.67
2019-01-24T06:58:54.220Z,989.69
2019-01-24T06:59:54.219Z,989.71
2019-01-24T07:00:54.222Z,989.75
2019-01-24T07:01:54.204Z,989.74
2019-01-24T07:02:54.193Z,989.72
2019-01-24T07:03:54.159Z,989.75
2019-01-24T07:04:54.149Z,989.78
2019-01-24T07:05:55.529Z,989.76
2019-01-24T07:06:54.179Z,989.77
2019-01-24T07:07:54.121Z,989.84
2019-01-24T07:08:54.128Z,989.82
2019-01-24T07:09:54.104Z,989.80
2019-01-24T07:10:54.099Z,989.83
2019-01-24T07:11:54.077Z,989.82
2019-01-24T07:12:54.125Z,989.86
2019-01-24T07:13:54.061Z,989.82
2019-01-24T07:14:54.117Z,989.84
2019-01-24T07:15:54.037Z,989.84
2019-01-24T07:16:54.026Z,989.92
2019-01-24T07:17:54.017Z,989.91
2019-01-24T07:18:54.036Z,989.94
2019-01-24T07:19:54.009Z,989.92
2019-01-24T07:20:53.982Z,989.95
2019-01-24T07:21:53.977Z,989.92
2019-01-24T07:22:53.980Z,989.96
2019-01-24T07:23:53.974Z,989.90
2019-01-24T07:24:53.997Z,989.97
2019-01-24T07:25:53.943Z,989.96
2019-01-24T07:26:53.930Z,989.95
2019-01-24T07:27:53.925Z,989.99
2019-01-24T07:28:53.905Z,990.01
2019-01-24T07:29:53.959Z,990.00
2019-01-24T07:30:53.920Z,990.04
2019-01-24T07:31:53.913Z,990.01
2019-01-24T07:32:53.887Z,990.03
2019-01-24T07:33:53.857Z,990.01
2019-01-24T07:34:53.840Z,990.10
2019-01-24T07:35:53.836Z,990.08
2019-01-24T07:36:53.845Z,990.11
2019-01-24T07:37:53.805Z,990.12
2019-01-24T07:38:53.807Z,990.16
2019-01-24T07:39:53.789Z,990.21
2019-01-24T07:40:53.770Z,990.18
2019-01-24T07:41:53.763Z,990.21
2019-01-24T07:42:53.803Z,990.23
2019-01-24T07:43:53.742Z,990.26
2019-01-24T07:44:53.899Z,990.24
2019-01-24T07:45:53.716Z,990.28
2019-01-24T07:46:53.709Z,990.31
2019-01-24T07:47:53.696Z,990.33
2019-01-24T07:48:53.725Z,990.33
2019-01-24T07:49:53.702Z,990.36
2019-01-24T07:50:53.666Z,990.42
2019-01-24T07:51:53.654Z,990.44
2019-01-24T07:52:53.662Z,990.43
2019-01-24T07:53:53.638Z,990.42
2019-01-24T07:54:53.662Z,990.43
2019-01-24T07:55:53.611Z,990.48
2019-01-24T07:56:53.602Z,990.48
2019-01-24T07:57:53.593Z,990.48
2019-01-24T07:58:53.603Z,990.46
2019-01-24T07:59:53.571Z,990.47
2019-01-24T08:00:53.632Z,990.52
2019-01-24T08:01:53.548Z,990.47
2019-01-24T08:02:53.542Z,990.50
2019-01-24T08:03:53.531Z,990.51
2019-01-24T08:04:53.532Z,990.46
2019-01-24T08:05:53.508Z,990.47
2019-01-24T08:06:53.536Z,990.51
2019-01-24T08:07:53.486Z,990.53
2019-01-24T08:08:53.474Z,990.56
2019-01-24T08:09:53.517Z,990.58
2019-01-24T08:10:53.473Z,990.62
2019-01-24T08:11:53.489Z,990.68
2019-01-24T08:12:53.477Z,990.68
2019-01-24T08:13:53.439Z,990.62
2019-01-24T08:14:53.422Z,990.75
2019-01-24T08:15:53.415Z,990.77
2019-01-24T08:16:53.403Z,990.75
2019-01-24T08:17:53.415Z,990.71
2019-01-24T08:18:53.419Z,990.72
2019-01-24T08:19:53.368Z,990.81
2019-01-24T08:20:53.358Z,990.83
2019-01-24T08:21:53.347Z,990.86
2019-01-24T08:22:53.363Z,990.87
2019-01-24T08:23:53.327Z,990.90
2019-01-24T08:24:53.359Z,990.83
2019-01-24T08:25:53.354Z,990.88
2019-01-24T08:26:53.307Z,990.88
2019-01-24T08:27:53.297Z,990.86
2019-01-24T08:28:53.316Z,990.86
2019-01-24T08:29:53.266Z,990.87
2019-01-24T08:30:53.300Z,990.96
2019-01-24T08:31:53.349Z,990.93
2019-01-24T08:32:53.239Z,990.96
2019-01-24T08:33:53.267Z,990.93
2019-01-24T08:34:53.219Z,990.96
2019-01-24T08:35:53.202Z,990.96
2019-01-24T08:36:53.238Z,990.96
2019-01-24T08:37:53.206Z,990.98
2019-01-24T08:38:53.177Z,991.04
2019-01-24T08:39:53.165Z,991.02
2019-01-24T08:40:53.152Z,991.00
2019-01-24T08:41:53.169Z,991.00
2019-01-24T08:42:53.181Z,991.03
2019-01-24T08:43:53.127Z,991.00
2019-01-24T08:44:53.105Z,991.04
2019-01-24T08:45:53.104Z,991.00
2019-01-24T08:46:53.083Z,991.04
2019-01-24T08:47:53.074Z,991.05
2019-01-24T08:48:53.094Z,991.09
2019-01-24T08:49:53.052Z,991.08
2019-01-24T08:50:53.051Z,991.10
2019-01-24T08:51:53.036Z,991.13
2019-01-24T08:52:53.076Z,991.12
2019-01-24T08:53:53.022Z,991.16
2019-01-24T08:54:53.070Z,991.14
2019-01-24T08:55:52.989Z,991.11
2019-01-24T08:56:52.973Z,991.11
2019-01-24T08:57:52.965Z,991.14
2019-01-24T08:58:52.965Z,991.15
2019-01-24T08:59:52.962Z,991.11
2019-01-24T09:00:52.969Z,991.12
2019-01-24T09:01:52.924Z,991.10
2019-01-24T09:02:52.945Z,991.14
2019-01-24T09:03:52.961Z,991.15
2019-01-24T09:04:52.893Z,991.10
2019-01-24T09:05:52.900Z,991.18
2019-01-24T09:06:52.912Z,991.18
2019-01-24T09:07:52.865Z,991.17
2019-01-24T09:08:52.842Z,991.19
2019-01-24T09:09:52.829Z,991.13
2019-01-24T09:10:52.833Z,991.19
2019-01-24T09:11:52.827Z,991.16
2019-01-24T09:12:52.869Z,991.19
2019-01-24T09:13:52.792Z,991.23
2019-01-24T09:14:52.780Z,991.24
2019-01-24T09:15:52.768Z,991.20
2019-01-24T09:16:52.776Z,991.26
2019-01-24T09:17:52.744Z,991.23
2019-01-24T09:18:52.774Z,991.26
2019-01-24T09:19:52.724Z,991.22
2019-01-24T09:20:52.718Z,991.25
2019-01-24T09:21:52.709Z,991.30
2019-01-24T09:22:55.367Z,991.23
2019-01-24T09:23:52.684Z,991.31
2019-01-24T09:24:52.720Z,991.29
2019-01-24T09:25:52.661Z,991.28
2019-01-24T09:26:52.651Z,991.24
2019-01-24T09:27:52.641Z,991.32
2019-01-24T09:28:52.632Z,991.29
2019-01-24T09:29:52.625Z,991.32
2019-01-24T09:30:52.687Z,991.28
2019-01-24T09:31:52.608Z,991.32
2019-01-24T09:32:52.608Z,991.28
2019-01-24T09:33:52.589Z,991.28
2019-01-24T09:34:52.571Z,991.31
2019-01-24T09:35:52.573Z,991.31
2019-01-24T09:36:52.586Z,991.29
2019-01-24T09:37:52.535Z,991.26
2019-01-24T09:38:52.530Z,991.33
2019-01-24T09:39:52.540Z,991.30
2019-01-24T09:40:52.510Z,991.27
2019-01-24T09:41:52.518Z,991.29
2019-01-24T09:42:52.538Z,991.24
2019-01-24T09:43:52.515Z,991.22
2019-01-24T09:44:52.489Z,991.24
2019-01-24T09:45:52.477Z,991.19
2019-01-24T09:46:52.449Z,991.24
2019-01-24T09:47:52.433Z,991.26
2019-01-24T09:48:52.482Z,991.22
2019-01-24T09:49:52.518Z,991.20
2019-01-24T09:50:52.401Z,991.20
2019-01-24T09:51:52.392Z,991.19
2019-01-24T09:52:52.398Z,991.20
2019-01-24T09:53:52.403Z,991.17
2019-01-24T09:54:52.408Z,991.21
2019-01-24T09:55:52.347Z,991.19
2019-01-24T09:56:52.342Z,991.23
2019-01-24T09:57:52.329Z,991.24
2019-01-24T09:58:52.351Z,991.18
2019-01-24T09:59:52.311Z,991.21
2019-01-24T10:00:52.334Z,991.24
2019-01-24T10:01:52.288Z,991.19
2019-01-24T10:02:52.314Z,991.27
2019-01-24T10:03:52.269Z,991.23
2019-01-24T10:04:52.296Z,991.25
2019-01-24T10:05:52.248Z,991.24
2019-01-24T10:06:52.302Z,991.27
2019-01-24T10:07:52.228Z,991.34
2019-01-24T10:08:52.206Z,991.31
2019-01-24T10:09:52.200Z,991.25
2019-01-24T10:10:52.186Z,991.28
2019-01-24T10:11:52.188Z,991.27
2019-01-24T10:12:52.221Z,991.25
2019-01-24T10:13:52.155Z,991.26
2019-01-24T10:14:52.148Z,991.25
2019-01-24T10:15:52.132Z,991.24
2019-01-24T10:16:52.122Z,991.29
2019-01-24T10:17:52.118Z,991.26
2019-01-24T10:18:52.141Z,991.27
2019-01-24T10:19:52.109Z,991.24
2019-01-24T10:20:52.079Z,991.29
2019-01-24T10:21:52.069Z,991.27
2019-01-24T10:22:52.091Z,991.30
2019-01-24T10:23:52.050Z,991.26
2019-01-24T10:24:52.082Z,991.28
2019-01-24T10:25:52.033Z,991.23
2019-01-24T10:26:52.018Z,991.20
2019-01-24T10:27:52.004Z,991.23
2019-01-24T10:28:52.029Z,991.20
2019-01-24T10:29:51.985Z,991.23
2019-01-24T10:30:52.011Z,991.23
2019-01-24T10:31:51.969Z,991.26
2019-01-24T10:32:51.952Z,991.26
2019-01-24T10:33:51.943Z,991.24
2019-01-24T10:34:51.932Z,991.24
2019-01-24T10:35:51.924Z,991.26
2019-01-24T10:36:51.948Z,991.20
2019-01-24T10:37:51.918Z,991.24
2019-01-24T10:38:51.891Z,991.24
2019-01-24T10:39:51.878Z,991.29
2019-01-24T10:40:51.872Z,991.26
2019-01-24T10:41:51.859Z,991.27
2019-01-24T10:42:51.904Z,991.32
2019-01-24T10:43:51.850Z,991.30
2019-01-24T10:44:51.833Z,991.30
2019-01-24T10:45:51.814Z,991.31
2019-01-24T10:46:52.622Z,991.32
2019-01-24T10:47:51.875Z,991.28
2019-01-24T10:48:51.830Z,991.31
2019-01-24T10:49:51.795Z,991.33
2019-01-24T10:50:51.760Z,991.31
2019-01-24T10:51:51.759Z,991.32
2019-01-24T10:52:51.742Z,991.29
2019-01-24T10:53:51.730Z,991.33
2019-01-24T10:54:51.752Z,991.35
2019-01-24T10:55:51.733Z,991.35
2019-01-24T10:56:51.695Z,991.38
2019-01-24T10:57:51.690Z,991.37
2019-01-24T10:58:51.677Z,991.42
2019-01-24T10:59:51.665Z,991.30
2019-01-24T11:00:52.957Z,991.37
2019-01-24T11:01:51.694Z,991.35
2019-01-24T11:02:51.634Z,991.34
2019-01-24T11:03:51.628Z,991.33
2019-01-24T11:04:51.615Z,991.31
2019-01-24T11:05:51.599Z,991.28
2019-01-24T11:06:51.630Z,991.31
2019-01-24T11:07:51.596Z,991.34
2019-01-24T11:08:51.570Z,991.27
2019-01-24T11:09:51.561Z,991.29
2019-01-24T11:10:51.550Z,991.34
2019-01-24T11:11:51.546Z,991.32
2019-01-24T11:12:51.559Z,991.34
2019-01-24T11:13:51.533Z,991.35
2019-01-24T11:14:51.503Z,991.33
2019-01-24T11:15:51.495Z,991.36
2019-01-24T11:16:51.482Z,991.42
2019-01-24T11:17:51.487Z,991.40
2019-01-24T11:18:51.501Z,991.38
2019-01-24T11:19:51.481Z,991.37
2019-01-24T11:20:51.458Z,991.36
2019-01-24T11:21:51.435Z,991.33
2019-01-24T11:22:51.421Z,991.31
2019-01-24T11:23:51.415Z,991.27
2019-01-24T11:24:51.442Z,991.24
2019-01-24T11:25:51.387Z,991.29
2019-01-24T11:26:51.381Z,991.25
2019-01-24T11:27:51.377Z,991.27
2019-01-24T11:28:51.358Z,991.31
2019-01-24T11:29:52.213Z,991.34
2019-01-24T11:30:51.391Z,991.32
2019-01-24T11:31:51.371Z,991.33
2019-01-24T11:32:51.311Z,991.31
2019-01-24T11:33:51.309Z,991.29
2019-01-24T11:34:51.302Z,991.28
2019-01-24T11:35:51.303Z,991.27
2019-01-24T11:36:57.005Z,991.27
2019-01-24T11:37:52.261Z,991.22
2019-01-24T11:38:51.250Z,991.29
2019-01-24T11:39:51.285Z,991.30
2019-01-24T11:40:51.235Z,991.28
2019-01-24T11:41:51.264Z,991.31
2019-01-24T11:42:51.249Z,991.26
2019-01-24T11:43:51.198Z,991.29
2019-01-24T11:44:51.186Z,991.31
2019-01-24T11:45:51.172Z,991.28
2019-01-24T11:46:51.186Z,991.32
2019-01-24T11:47:51.155Z,991.35
2019-01-24T11:48:51.176Z,991.42
2019-01-24T11:49:51.131Z,991.39
2019-01-24T11:50:51.292Z,991.37
2019-01-24T11:51:51.110Z,991.44
2019-01-24T11:52:51.107Z,991.40
2019-01-24T11:53:53.185Z,991.42
2019-01-24T11:54:51.128Z,991.40
2019-01-24T11:55:51.065Z,991.40
2019-01-24T11:56:51.058Z,991.41
2019-01-24T11:57:51.046Z,991.36
2019-01-24T11:58:51.036Z,991.45
2019-01-24T11:59:51.038Z,991.45
2019-01-24T12:00:51.060Z,991.43
2019-01-24T12:01:51.001Z,991.47
2019-01-24T12:02:50.990Z,991.44
2019-01-24T12:03:50.983Z,991.50
2019-01-24T12:04:50.975Z,991.49
2019-01-24T12:05:50.975Z,991.54
2019-01-24T12:06:51.130Z,991.56
2019-01-24T12:07:50.942Z,991.57
2019-01-24T12:08:50.930Z,991.55
2019-01-24T12:09:50.921Z,991.52
2019-01-24T12:10:50.913Z,991.53
2019-01-24T12:11:50.896Z,991.53
2019-01-24T12:12:50.932Z,991.54
2019-01-24T12:13:50.877Z,991.57
2019-01-24T12:14:50.865Z,991.55
2019-01-24T12:15:50.860Z,991.54
2019-01-24T12:16:50.845Z,991.50
2019-01-24T12:17:50.834Z,991.54
2019-01-24T12:18:50.874Z,991.55
2019-01-24T12:19:50.811Z,991.50
2019-01-24T12:20:50.816Z,991.57
2019-01-24T12:21:50.791Z,991.57
2019-01-24T12:22:50.780Z,991.54
2019-01-24T12:23:50.769Z,991.55
2019-01-24T12:24:50.822Z,991.54
2019-01-24T12:25:50.749Z,991.52
2019-01-24T12:26:50.744Z,991.49
2019-01-24T12:27:50.750Z,991.50
2019-01-24T12:28:50.717Z,991.51